Arcata/Eureka (ACV/KACV)

Map

Destinations

Information

Location
Arcata/Eureka, CA
Local Time
16:36 / 4:36 pm
GMT Time
23:36 / 11:36 pm
Gates
6
No FAA reported delays
METAR KACV 232253Z AUTO 32012KT 10SM CLR 19/11 A2999 RMK AO2 SLP161 T01890111
TAF KACV 231726Z 2318/2418 32010KT P6SM SKC FM232000 32014G20KT P6SM SKC FM240300 34007KT 6SM HZ FEW250 FM240600 VRB04KT 6SM BR FEW003 FM240900 12003KT P6SM SKC